createdAt,value
2018-07-07T12:21:15.266Z,24.80
2018-07-07T12:23:43.443Z,24.70
2018-07-07T12:26:11.664Z,24.70
2018-07-07T12:28:39.879Z,24.80
2018-07-07T12:31:08.211Z,24.80
2018-07-07T12:33:36.426Z,24.60
2018-07-07T12:36:04.687Z,24.40
2018-07-07T12:38:32.867Z,24.40
2018-07-07T12:41:01.358Z,24.50
2018-07-07T12:43:29.537Z,24.60
2018-07-07T12:45:57.792Z,24.80
2018-07-07T12:48:25.910Z,25.00
2018-07-07T12:50:54.098Z,25.20
2018-07-07T12:53:22.274Z,25.40
2018-07-07T12:55:50.453Z,25.50
2018-07-07T12:58:18.934Z,25.40
2018-07-07T13:00:47.119Z,25.20
2018-07-07T13:03:15.297Z,25.30
2018-07-07T13:05:43.520Z,25.40
2018-07-07T13:08:11.735Z,25.60
2018-07-07T13:13:07.818Z,25.80
2018-07-07T13:15:36.289Z,25.70
2018-07-07T13:18:04.798Z,25.60
2018-07-07T13:20:32.969Z,25.50
2018-07-07T13:23:01.144Z,25.60
2018-07-07T13:25:29.303Z,25.60
2018-07-07T13:27:57.535Z,25.70
2018-07-07T13:30:25.706Z,25.80
2018-07-07T13:35:22.078Z,26.10
2018-07-07T13:37:50.426Z,26.10
2018-07-07T13:40:18.573Z,26.10
2018-07-07T13:42:46.817Z,26.20
2018-07-07T13:45:15.041Z,26.20
2018-07-07T13:47:43.243Z,26.30
2018-07-07T13:50:11.435Z,26.40
2018-07-07T13:52:39.904Z,26.40
2018-07-07T13:55:08.350Z,26.40
2018-07-07T13:57:36.537Z,26.30
2018-07-07T14:00:05.294Z,26.20
2018-07-07T14:02:33.483Z,26.10
2018-07-07T14:05:01.639Z,26.20
2018-07-07T14:07:29.816Z,26.10
2018-07-07T14:09:57.962Z,25.90
2018-07-07T14:12:26.683Z,25.80
2018-07-07T14:14:54.830Z,25.60
2018-07-07T14:17:23.295Z,25.50
2018-07-07T14:19:51.450Z,25.60
2018-07-07T14:22:19.637Z,25.70
2018-07-07T14:24:47.790Z,25.80
2018-07-07T14:27:15.974Z,25.90
2018-07-07T14:29:44.123Z,25.90
2018-07-07T14:32:12.458Z,26.00
2018-07-07T14:34:40.846Z,26.00
2018-07-07T14:37:09.002Z,26.10
2018-07-07T14:39:49.890Z,26.10
2018-07-07T14:42:55.648Z,26.20
2018-07-07T14:45:25.779Z,26.20
2018-07-07T14:47:55.176Z,26.20
2018-07-07T14:50:23.607Z,26.20
2018-07-07T14:52:51.774Z,26.30
2018-07-07T14:55:21.399Z,26.40
2018-07-07T14:57:49.917Z,26.40
2018-07-07T15:00:19.198Z,26.40
2018-07-07T15:05:16.105Z,26.40
2018-07-07T15:07:44.526Z,26.30
2018-07-07T15:10:13.739Z,26.30
2018-07-07T15:12:42.431Z,26.30
2018-07-07T15:15:11.302Z,26.20
2018-07-07T15:17:40.027Z,26.20
2018-07-07T15:20:08.312Z,26.20
2018-07-07T15:22:36.622Z,26.20
2018-07-07T15:25:04.787Z,26.10
2018-07-07T15:27:33.186Z,26.00
2018-07-07T15:32:29.651Z,26.00
2018-07-07T15:34:57.833Z,25.90
2018-07-07T15:37:26.478Z,25.80
2018-07-07T15:39:54.698Z,25.90
2018-07-07T15:42:22.878Z,25.90
2018-07-07T15:44:51.087Z,25.90
2018-07-07T15:47:19.352Z,25.80
2018-07-07T15:49:47.547Z,25.80
2018-07-07T15:52:15.727Z,25.70
2018-07-07T15:54:43.943Z,25.70
2018-07-07T15:57:12.122Z,25.60
2018-07-07T15:59:40.502Z,25.60
2018-07-07T16:02:08.715Z,25.60
2018-07-07T16:04:36.930Z,25.60
2018-07-07T16:07:05.557Z,25.50
2018-07-07T16:09:33.954Z,25.60
2018-07-07T16:12:02.239Z,25.50
2018-07-07T16:14:30.402Z,25.50
2018-07-07T16:16:58.546Z,25.40
2018-07-07T16:19:26.702Z,25.40
2018-07-07T16:21:54.907Z,25.40
2018-07-07T16:24:23.247Z,25.40
2018-07-07T16:26:51.415Z,25.30
2018-07-07T16:29:19.562Z,25.30
2018-07-07T16:31:47.718Z,25.30
2018-07-07T16:34:15.881Z,25.20
2018-07-07T16:36:44.043Z,25.20
2018-07-07T16:39:12.283Z,25.20
2018-07-07T16:41:40.469Z,25.10
2018-07-07T16:44:08.664Z,25.10
2018-07-07T16:46:37.512Z,25.10
2018-07-07T16:49:08.115Z,25.00
2018-07-07T16:51:36.761Z,25.00
2018-07-07T16:54:05.444Z,25.00
2018-07-07T16:56:33.670Z,25.00
2018-07-07T16:59:01.827Z,25.00
2018-07-07T17:01:30.035Z,24.90
2018-07-07T17:03:58.818Z,24.90
2018-07-07T17:06:26.990Z,24.90
2018-07-07T17:08:55.186Z,24.80
2018-07-07T17:11:23.375Z,24.80
2018-07-07T17:13:51.583Z,24.80
2018-07-07T17:16:19.755Z,24.80
2018-07-07T17:18:48.566Z,24.70
2018-07-07T17:21:16.871Z,24.70
2018-07-07T17:23:45.055Z,24.70
2018-07-07T17:26:13.305Z,24.60
2018-07-07T17:28:41.879Z,24.70
2018-07-07T17:31:10.044Z,24.70
2018-07-07T17:33:38.674Z,24.70
2018-07-07T17:36:06.914Z,24.60
2018-07-07T17:38:35.107Z,24.60
2018-07-07T17:41:03.266Z,24.60
2018-07-07T17:43:31.410Z,24.50
2018-07-07T17:45:59.899Z,24.50
2018-07-07T17:48:28.442Z,24.50
2018-07-07T17:50:56.901Z,24.50
2018-07-07T17:53:25.482Z,24.40
2018-07-07T17:55:53.867Z,24.40
2018-07-07T17:58:22.497Z,24.30
2018-07-07T18:00:50.906Z,24.30
2018-07-07T18:03:19.101Z,24.20
2018-07-07T18:05:47.274Z,24.20
2018-07-07T18:08:15.425Z,24.20
2018-07-07T18:10:43.682Z,24.10
2018-07-07T18:13:11.872Z,24.10
2018-07-07T18:15:40.027Z,24.10
2018-07-07T18:18:08.199Z,24.10
2018-07-07T18:20:36.341Z,24.10
2018-07-07T18:23:04.514Z,24.10
2018-07-07T18:25:32.922Z,24.00
2018-07-07T18:28:01.078Z,23.90
2018-07-07T18:30:29.239Z,23.80
2018-07-07T18:32:57.401Z,23.80
2018-07-07T18:35:25.883Z,23.70
2018-07-07T18:37:54.061Z,23.60
2018-07-07T18:40:22.200Z,23.50
2018-07-07T18:42:50.505Z,23.40
2018-07-07T18:45:18.662Z,23.30
2018-07-07T18:47:46.814Z,23.30
2018-07-07T18:50:14.998Z,23.20
2018-07-07T18:52:43.256Z,23.10
2018-07-07T18:55:11.386Z,23.00
2018-07-07T18:57:39.554Z,22.80
2018-07-07T19:00:07.952Z,22.80
2018-07-07T19:02:36.101Z,22.60
2018-07-07T19:05:04.339Z,22.60
2018-07-07T19:07:32.599Z,22.50
2018-07-07T19:10:00.722Z,22.40
2018-07-07T19:12:29.131Z,22.30
2018-07-07T19:15:02.826Z,22.20
2018-07-07T19:17:31.026Z,22.10
2018-07-07T19:19:59.207Z,22.00
2018-07-07T19:22:32.770Z,22.00
2018-07-07T19:25:06.431Z,21.90
2018-07-07T19:27:34.934Z,21.80
2018-07-07T19:30:03.197Z,21.70
2018-07-07T19:32:36.773Z,21.70
2018-07-07T19:35:10.483Z,21.60
2018-07-07T19:37:38.606Z,21.60
2018-07-07T19:40:06.786Z,21.50
2018-07-07T19:42:35.003Z,21.40
2018-07-07T19:45:03.185Z,21.30
2018-07-07T19:47:31.374Z,21.30
2018-07-07T19:49:59.814Z,21.20
2018-07-07T19:52:28.001Z,21.10
2018-07-07T19:54:56.186Z,21.10
2018-07-07T19:57:24.362Z,21.00
2018-07-07T20:02:20.753Z,20.80
2018-07-07T20:04:48.927Z,20.80
2018-07-07T20:07:17.090Z,20.70
2018-07-07T20:09:45.248Z,20.70
2018-07-07T20:12:13.399Z,20.60
2018-07-07T20:14:41.554Z,20.60
2018-07-07T20:17:13.722Z,20.50
2018-07-07T20:20:58.874Z,20.50
2018-07-07T20:23:29.027Z,20.40
2018-07-07T20:26:02.746Z,20.30
2018-07-07T20:28:36.578Z,20.20
2018-07-07T20:31:04.648Z,20.20
2018-07-07T20:33:32.798Z,20.20
2018-07-07T20:36:00.957Z,20.10
2018-07-07T20:38:29.114Z,20.10
2018-07-07T20:40:57.275Z,20.00
2018-07-07T20:43:25.435Z,20.00
2018-07-07T20:45:53.589Z,20.00
2018-07-07T20:48:21.738Z,19.90
2018-07-07T20:50:49.924Z,19.90
2018-07-07T20:53:18.116Z,19.80
2018-07-07T20:55:46.369Z,19.80
2018-07-07T20:58:14.526Z,19.70
2018-07-07T21:00:42.689Z,19.70
2018-07-07T21:03:10.849Z,19.60
2018-07-07T21:05:39.037Z,19.70
2018-07-07T21:08:07.200Z,19.60
2018-07-07T21:10:35.354Z,19.50
2018-07-07T21:13:03.502Z,19.60
2018-07-07T21:15:31.842Z,19.60
2018-07-07T21:18:00.079Z,19.60
2018-07-07T21:20:28.163Z,19.60
2018-07-07T21:22:56.322Z,19.50
2018-07-07T21:25:24.477Z,19.50
2018-07-07T21:27:52.639Z,19.60
2018-07-07T21:30:20.892Z,19.50
2018-07-07T21:32:49.088Z,19.40
2018-07-07T21:35:17.343Z,19.40
2018-07-07T21:37:45.522Z,19.40
2018-07-07T21:40:13.702Z,19.40
2018-07-07T21:42:41.863Z,19.50
2018-07-07T21:45:10.040Z,19.50
2018-07-07T21:47:38.427Z,19.40
2018-07-07T21:50:06.667Z,19.50
2018-07-07T21:52:34.826Z,19.50
2018-07-07T21:57:36.214Z,19.50
2018-07-07T22:00:04.811Z,19.40
2018-07-07T22:02:38.498Z,19.40
2018-07-07T22:05:12.215Z,19.40
2018-07-07T22:07:41.254Z,19.40
2018-07-07T22:12:37.472Z,19.30
2018-07-07T22:15:05.659Z,19.30
2018-07-07T22:17:33.896Z,19.30
2018-07-07T22:20:02.071Z,19.30
2018-07-07T22:22:30.279Z,19.30
2018-07-07T22:24:58.476Z,19.30
2018-07-07T22:27:26.658Z,19.20
2018-07-07T22:29:54.845Z,19.20
2018-07-07T22:32:23.811Z,19.10
2018-07-07T22:34:52.279Z,19.10
2018-07-07T22:37:21.009Z,19.00
2018-07-07T22:39:49.174Z,19.00
2018-07-07T22:42:18.544Z,19.00
2018-07-07T22:44:47.896Z,19.00
2018-07-07T22:47:16.120Z,18.90
2018-07-07T22:52:12.681Z,18.90
2018-07-07T22:54:40.966Z,18.80
2018-07-07T22:57:09.436Z,18.80
2018-07-07T22:59:37.583Z,18.70
2018-07-07T23:02:06.047Z,18.80
2018-07-07T23:04:34.211Z,18.70
2018-07-07T23:07:02.366Z,18.80
2018-07-07T23:09:30.816Z,18.80
2018-07-07T23:11:58.969Z,18.80
2018-07-07T23:14:27.118Z,18.90
2018-07-07T23:16:58.516Z,18.90
2018-07-07T23:19:27.094Z,19.00
2018-07-07T23:21:56.890Z,19.00
2018-07-07T23:26:53.250Z,19.10
2018-07-07T23:29:21.439Z,19.00
2018-07-07T23:31:49.622Z,19.00
2018-07-07T23:34:18.046Z,19.00
2018-07-07T23:36:46.190Z,19.00
2018-07-07T23:39:14.386Z,19.00
2018-07-07T23:41:42.562Z,19.00
2018-07-07T23:44:10.760Z,19.00
2018-07-07T23:46:38.910Z,19.00
2018-07-07T23:49:07.332Z,18.90
2018-07-07T23:51:35.484Z,18.90
2018-07-07T23:54:03.698Z,18.90
2018-07-07T23:56:31.870Z,18.90
2018-07-07T23:59:00.031Z,18.80
